Leblanc, Louisiana
Current Conditions -  °F | °C
As of 1:15 PM on Monday 22 Dec 2014 (Local Time) from KACP Reporting Station
Overcast Overcast  
Wind Chill: 67°   Ceiling: 1400
Heat Index: 67°   Visibility: 10mi
Dew Point: 62°   Wind: 9mph
Humidity: 82%   Direction: 190°S
Pressure: 29.67"   Gusts: 16mph
Location:  30.51°N, 92.94°W
Report Text: KACP 221915Z AUTO 19008G14KT 10SM SCT007 OVC014 20/17 A2967 RMK AO2 T01970166
Loading
Personal Weather Stations






























Interactive Weather Map New forecast layout! Learn more

10-Day Weather Forecast

Advertisements
Track Severe Weather on mobile